sensor_id;sensor_type;location;lat;lon;timestamp;P1;durP1;ratioP1;P2;durP2;ratioP2
5060;SDS011;2549;52.128;21.068;2022-11-15T00:00:56;26.85;;;14.75;;
5060;SDS011;2549;52.128;21.068;2022-11-15T00:03:27;24.33;;;13.50;;
5060;SDS011;2549;52.128;21.068;2022-11-15T00:05:54;25.38;;;14.50;;
5060;SDS011;2549;52.128;21.068;2022-11-15T00:08:21;28.88;;;14.50;;
5060;SDS011;2549;52.128;21.068;2022-11-15T00:10:55;29.05;;;13.73;;
5060;SDS011;2549;52.128;21.068;2022-11-15T00:13:25;21.92;;;13.88;;
5060;SDS011;2549;52.128;21.068;2022-11-15T00:15:52;22.02;;;13.95;;
5060;SDS011;2549;52.128;21.068;2022-11-15T00:18:19;23.98;;;14.07;;
5060;SDS011;2549;52.128;21.068;2022-11-15T00:20:46;30.33;;;15.95;;
5060;SDS011;2549;52.128;21.068;2022-11-15T00:23:13;23.67;;;14.32;;
5060;SDS011;2549;52.128;21.068;2022-11-15T00:25:40;25.67;;;13.93;;
5060;SDS011;2549;52.128;21.068;2022-11-15T00:28:07;27.80;;;15.20;;
5060;SDS011;2549;52.128;21.068;2022-11-15T00:30:34;31.17;;;15.65;;
5060;SDS011;2549;52.128;21.068;2022-11-15T00:33:01;28.75;;;16.05;;
5060;SDS011;2549;52.128;21.068;2022-11-15T00:35:31;31.38;;;16.05;;
5060;SDS011;2549;52.128;21.068;2022-11-15T00:37:59;29.95;;;16.77;;
5060;SDS011;2549;52.128;21.068;2022-11-15T00:40:27;27.55;;;15.93;;
5060;SDS011;2549;52.128;21.068;2022-11-15T00:42:54;31.38;;;17.13;;
5060;SDS011;2549;52.128;21.068;2022-11-15T00:45:21;30.20;;;15.77;;
5060;SDS011;2549;52.128;21.068;2022-11-15T00:47:48;32.35;;;16.15;;
5060;SDS011;2549;52.128;21.068;2022-11-15T00:50:15;32.92;;;17.60;;
5060;SDS011;2549;52.128;21.068;2022-11-15T00:52:42;41.10;;;19.02;;
5060;SDS011;2549;52.128;21.068;2022-11-15T00:55:13;30.10;;;16.98;;
5060;SDS011;2549;52.128;21.068;2022-11-15T00:57:44;33.35;;;18.30;;
5060;SDS011;2549;52.128;21.068;2022-11-15T01:00:12;33.13;;;17.20;;
5060;SDS011;2549;52.128;21.068;2022-11-15T01:02:39;29.27;;;17.60;;
5060;SDS011;2549;52.128;21.068;2022-11-15T01:05:07;30.08;;;18.50;;
5060;SDS011;2549;52.128;21.068;2022-11-15T01:07:34;42.30;;;19.33;;
5060;SDS011;2549;52.128;21.068;2022-11-15T01:10:01;30.42;;;16.23;;
5060;SDS011;2549;52.128;21.068;2022-11-15T01:12:28;33.08;;;17.10;;
5060;SDS011;2549;52.128;21.068;2022-11-15T01:14:55;38.53;;;17.33;;
5060;SDS011;2549;52.128;21.068;2022-11-15T01:17:22;27.45;;;16.45;;
5060;SDS011;2549;52.128;21.068;2022-11-15T01:19:49;34.83;;;18.75;;
5060;SDS011;2549;52.128;21.068;2022-11-15T01:22:16;33.50;;;16.80;;
5060;SDS011;2549;52.128;21.068;2022-11-15T01:24:43;34.20;;;17.80;;
5060;SDS011;2549;52.128;21.068;2022-11-15T01:27:10;32.00;;;17.42;;
5060;SDS011;2549;52.128;21.068;2022-11-15T01:29:37;36.00;;;16.00;;
5060;SDS011;2549;52.128;21.068;2022-11-15T01:32:04;31.52;;;17.33;;
5060;SDS011;2549;52.128;21.068;2022-11-15T01:34:31;28.35;;;17.08;;
5060;SDS011;2549;52.128;21.068;2022-11-15T01:36:57;31.90;;;18.60;;
5060;SDS011;2549;52.128;21.068;2022-11-15T01:39:25;33.63;;;17.88;;
5060;SDS011;2549;52.128;21.068;2022-11-15T01:41:52;32.40;;;17.05;;
5060;SDS011;2549;52.128;21.068;2022-11-15T01:44:31;31.73;;;17.15;;
5060;SDS011;2549;52.128;21.068;2022-11-15T01:47:03;34.42;;;16.70;;
5060;SDS011;2549;52.128;21.068;2022-11-15T01:49:39;37.65;;;17.92;;
5060;SDS011;2549;52.128;21.068;2022-11-15T01:52:13;33.97;;;17.90;;
5060;SDS011;2549;52.128;21.068;2022-11-15T01:54:44;32.50;;;17.20;;
5060;SDS011;2549;52.128;21.068;2022-11-15T01:57:11;31.75;;;17.25;;
5060;SDS011;2549;52.128;21.068;2022-11-15T01:59:40;32.50;;;16.35;;
5060;SDS011;2549;52.128;21.068;2022-11-15T02:02:09;26.00;;;14.93;;
5060;SDS011;2549;52.128;21.068;2022-11-15T02:04:40;30.20;;;16.77;;
5060;SDS011;2549;52.128;21.068;2022-11-15T02:07:09;33.90;;;18.42;;
5060;SDS011;2549;52.128;21.068;2022-11-15T02:09:38;31.40;;;16.73;;
5060;SDS011;2549;52.128;21.068;2022-11-15T02:12:06;38.33;;;18.20;;
5060;SDS011;2549;52.128;21.068;2022-11-15T02:14:35;30.90;;;16.10;;
5060;SDS011;2549;52.128;21.068;2022-11-15T02:25:37;30.95;;;17.33;;
5060;SDS011;2549;52.128;21.068;2022-11-15T02:31:03;32.97;;;16.58;;
5060;SDS011;2549;52.128;21.068;2022-11-15T02:36:11;32.80;;;17.95;;
5060;SDS011;2549;52.128;21.068;2022-11-15T02:41:40;35.53;;;17.75;;
5060;SDS011;2549;52.128;21.068;2022-11-15T02:44:17;36.67;;;17.25;;
5060;SDS011;2549;52.128;21.068;2022-11-15T02:46:52;40.42;;;19.30;;
5060;SDS011;2549;52.128;21.068;2022-11-15T02:49:43;38.63;;;18.67;;
5060;SDS011;2549;52.128;21.068;2022-11-15T02:52:17;35.10;;;20.25;;
5060;SDS011;2549;52.128;21.068;2022-11-15T02:54:58;40.53;;;18.63;;
5060;SDS011;2549;52.128;21.068;2022-11-15T03:00:07;37.75;;;19.77;;
5060;SDS011;2549;52.128;21.068;2022-11-15T03:11:10;37.22;;;19.70;;
5060;SDS011;2549;52.128;21.068;2022-11-15T03:13:43;38.70;;;19.55;;
5060;SDS011;2549;52.128;21.068;2022-11-15T03:16:20;37.67;;;19.67;;
5060;SDS011;2549;52.128;21.068;2022-11-15T03:19:20;42.33;;;21.52;;
5060;SDS011;2549;52.128;21.068;2022-11-15T03:21:57;42.15;;;19.30;;
5060;SDS011;2549;52.128;21.068;2022-11-15T03:24:26;43.10;;;19.98;;
5060;SDS011;2549;52.128;21.068;2022-11-15T03:26:56;34.28;;;18.95;;
5060;SDS011;2549;52.128;21.068;2022-11-15T03:29:28;34.93;;;18.53;;
5060;SDS011;2549;52.128;21.068;2022-11-15T03:32:07;38.00;;;20.02;;
5060;SDS011;2549;52.128;21.068;2022-11-15T03:34:47;32.97;;;18.95;;
5060;SDS011;2549;52.128;21.068;2022-11-15T03:37:20;39.80;;;20.67;;
5060;SDS011;2549;52.128;21.068;2022-11-15T03:39:48;41.85;;;22.15;;
5060;SDS011;2549;52.128;21.068;2022-11-15T03:47:25;40.22;;;21.05;;
5060;SDS011;2549;52.128;21.068;2022-11-15T03:50:01;40.63;;;18.70;;
5060;SDS011;2549;52.128;21.068;2022-11-15T03:52:33;41.63;;;20.30;;
5060;SDS011;2549;52.128;21.068;2022-11-15T03:55:01;42.43;;;19.20;;
5060;SDS011;2549;52.128;21.068;2022-11-15T03:57:30;42.40;;;20.95;;
5060;SDS011;2549;52.128;21.068;2022-11-15T03:59:57;39.20;;;19.75;;
5060;SDS011;2549;52.128;21.068;2022-11-15T04:02:24;34.22;;;18.83;;
5060;SDS011;2549;52.128;21.068;2022-11-15T04:04:50;43.13;;;21.00;;
5060;SDS011;2549;52.128;21.068;2022-11-15T04:07:17;38.70;;;19.60;;
5060;SDS011;2549;52.128;21.068;2022-11-15T04:09:44;41.22;;;19.42;;
5060;SDS011;2549;52.128;21.068;2022-11-15T04:12:30;37.00;;;20.70;;
5060;SDS011;2549;52.128;21.068;2022-11-15T04:14:58;36.83;;;18.63;;
5060;SDS011;2549;52.128;21.068;2022-11-15T04:23:07;43.60;;;19.98;;
5060;SDS011;2549;52.128;21.068;2022-11-15T04:25:56;39.03;;;19.95;;
5060;SDS011;2549;52.128;21.068;2022-11-15T04:28:26;37.30;;;19.70;;
5060;SDS011;2549;52.128;21.068;2022-11-15T04:30:52;38.08;;;19.08;;
5060;SDS011;2549;52.128;21.068;2022-11-15T04:33:19;41.70;;;20.20;;
5060;SDS011;2549;52.128;21.068;2022-11-15T04:35:47;52.10;;;20.90;;
5060;SDS011;2549;52.128;21.068;2022-11-15T04:38:34;50.38;;;21.48;;
5060;SDS011;2549;52.128;21.068;2022-11-15T04:41:02;47.88;;;21.38;;
5060;SDS011;2549;52.128;21.068;2022-11-15T04:43:29;37.63;;;18.58;;
5060;SDS011;2549;52.128;21.068;2022-11-15T04:45:56;36.38;;;19.23;;
5060;SDS011;2549;52.128;21.068;2022-11-15T04:48:23;42.72;;;20.15;;
5060;SDS011;2549;52.128;21.068;2022-11-15T04:50:50;42.50;;;20.20;;
5060;SDS011;2549;52.128;21.068;2022-11-15T04:53:17;38.80;;;19.83;;
5060;SDS011;2549;52.128;21.068;2022-11-15T04:55:44;37.92;;;18.83;;
5060;SDS011;2549;52.128;21.068;2022-11-15T04:58:12;43.33;;;20.33;;
5060;SDS011;2549;52.128;21.068;2022-11-15T05:00:39;44.67;;;21.40;;
5060;SDS011;2549;52.128;21.068;2022-11-15T05:03:06;45.88;;;19.02;;
5060;SDS011;2549;52.128;21.068;2022-11-15T05:05:53;37.97;;;19.98;;
5060;SDS011;2549;52.128;21.068;2022-11-15T05:08:20;44.53;;;20.58;;
5060;SDS011;2549;52.128;21.068;2022-11-15T05:10:47;46.03;;;20.95;;
5060;SDS011;2549;52.128;21.068;2022-11-15T05:13:14;43.08;;;20.08;;
5060;SDS011;2549;52.128;21.068;2022-11-15T05:15:40;47.55;;;22.20;;
5060;SDS011;2549;52.128;21.068;2022-11-15T05:18:07;39.40;;;19.70;;
5060;SDS011;2549;52.128;21.068;2022-11-15T05:20:34;51.05;;;21.95;;
5060;SDS011;2549;52.128;21.068;2022-11-15T05:23:01;46.25;;;21.27;;
5060;SDS011;2549;52.128;21.068;2022-11-15T05:25:28;45.78;;;21.52;;
5060;SDS011;2549;52.128;21.068;2022-11-15T05:27:55;47.10;;;19.92;;
5060;SDS011;2549;52.128;21.068;2022-11-15T05:30:22;40.70;;;18.58;;
5060;SDS011;2549;52.128;21.068;2022-11-15T05:32:49;39.38;;;19.70;;
5060;SDS011;2549;52.128;21.068;2022-11-15T05:35:22;39.47;;;19.55;;
5060;SDS011;2549;52.128;21.068;2022-11-15T05:38:05;43.63;;;19.20;;
5060;SDS011;2549;52.128;21.068;2022-11-15T05:40:32;38.07;;;18.87;;
5060;SDS011;2549;52.128;21.068;2022-11-15T05:43:00;39.72;;;19.58;;
5060;SDS011;2549;52.128;21.068;2022-11-15T05:45:29;44.13;;;19.23;;
5060;SDS011;2549;52.128;21.068;2022-11-15T05:47:58;39.60;;;19.23;;
5060;SDS011;2549;52.128;21.068;2022-11-15T05:50:27;46.40;;;18.23;;
5060;SDS011;2549;52.128;21.068;2022-11-15T05:52:54;39.90;;;18.73;;
5060;SDS011;2549;52.128;21.068;2022-11-15T05:55:28;43.10;;;19.58;;
5060;SDS011;2549;52.128;21.068;2022-11-15T05:57:55;45.80;;;19.02;;
5060;SDS011;2549;52.128;21.068;2022-11-15T06:00:22;38.45;;;19.15;;
5060;SDS011;2549;52.128;21.068;2022-11-15T06:02:49;43.00;;;19.90;;
5060;SDS011;2549;52.128;21.068;2022-11-15T06:05:16;43.20;;;19.88;;
5060;SDS011;2549;52.128;21.068;2022-11-15T06:07:43;43.17;;;20.55;;
5060;SDS011;2549;52.128;21.068;2022-11-15T06:10:10;39.80;;;18.80;;
5060;SDS011;2549;52.128;21.068;2022-11-15T06:12:37;47.55;;;19.23;;
5060;SDS011;2549;52.128;21.068;2022-11-15T06:15:04;41.85;;;18.85;;
5060;SDS011;2549;52.128;21.068;2022-11-15T06:17:31;44.90;;;18.40;;
5060;SDS011;2549;52.128;21.068;2022-11-15T06:19:58;45.97;;;19.77;;
5060;SDS011;2549;52.128;21.068;2022-11-15T06:22:25;44.78;;;18.25;;
5060;SDS011;2549;52.128;21.068;2022-11-15T06:24:51;44.17;;;20.92;;
5060;SDS011;2549;52.128;21.068;2022-11-15T06:27:18;41.60;;;19.10;;
5060;SDS011;2549;52.128;21.068;2022-11-15T06:29:45;46.83;;;21.20;;
5060;SDS011;2549;52.128;21.068;2022-11-15T06:35:01;40.55;;;17.38;;
5060;SDS011;2549;52.128;21.068;2022-11-15T06:37:28;41.42;;;18.80;;
5060;SDS011;2549;52.128;21.068;2022-11-15T06:39:55;45.15;;;19.65;;
5060;SDS011;2549;52.128;21.068;2022-11-15T06:42:22;40.70;;;19.60;;
5060;SDS011;2549;52.128;21.068;2022-11-15T06:44:48;41.10;;;19.10;;
5060;SDS011;2549;52.128;21.068;2022-11-15T06:47:15;48.30;;;20.05;;
5060;SDS011;2549;52.128;21.068;2022-11-15T06:49:42;44.70;;;20.92;;
5060;SDS011;2549;52.128;21.068;2022-11-15T06:52:09;45.20;;;20.83;;
5060;SDS011;2549;52.128;21.068;2022-11-15T06:54:36;47.10;;;19.70;;
5060;SDS011;2549;52.128;21.068;2022-11-15T06:57:04;45.35;;;19.58;;
5060;SDS011;2549;52.128;21.068;2022-11-15T06:59:31;48.88;;;19.67;;
5060;SDS011;2549;52.128;21.068;2022-11-15T07:02:05;57.28;;;22.83;;
5060;SDS011;2549;52.128;21.068;2022-11-15T07:04:32;53.83;;;21.77;;
5060;SDS011;2549;52.128;21.068;2022-11-15T07:07:01;38.35;;;16.90;;
5060;SDS011;2549;52.128;21.068;2022-11-15T07:09:28;36.30;;;17.05;;
5060;SDS011;2549;52.128;21.068;2022-11-15T07:11:55;39.97;;;18.42;;
5060;SDS011;2549;52.128;21.068;2022-11-15T07:14:22;34.75;;;16.23;;
5060;SDS011;2549;52.128;21.068;2022-11-15T07:16:48;47.80;;;20.55;;
5060;SDS011;2549;52.128;21.068;2022-11-15T07:19:15;46.53;;;20.48;;
5060;SDS011;2549;52.128;21.068;2022-11-15T07:21:42;46.72;;;21.35;;
5060;SDS011;2549;52.128;21.068;2022-11-15T07:24:09;47.70;;;19.45;;
5060;SDS011;2549;52.128;21.068;2022-11-15T07:26:36;48.47;;;19.48;;
5060;SDS011;2549;52.128;21.068;2022-11-15T07:29:03;44.65;;;19.08;;
5060;SDS011;2549;52.128;21.068;2022-11-15T07:31:30;42.00;;;20.73;;
5060;SDS011;2549;52.128;21.068;2022-11-15T07:33:56;36.38;;;17.10;;
5060;SDS011;2549;52.128;21.068;2022-11-15T07:36:23;37.05;;;17.48;;
5060;SDS011;2549;52.128;21.068;2022-11-15T07:38:51;32.55;;;15.30;;
5060;SDS011;2549;52.128;21.068;2022-11-15T07:41:17;29.65;;;16.08;;
5060;SDS011;2549;52.128;21.068;2022-11-15T07:43:44;34.05;;;14.15;;
5060;SDS011;2549;52.128;21.068;2022-11-15T07:46:11;34.30;;;15.25;;
5060;SDS011;2549;52.128;21.068;2022-11-15T07:48:38;31.65;;;14.95;;
5060;SDS011;2549;52.128;21.068;2022-11-15T07:51:11;32.58;;;15.45;;
5060;SDS011;2549;52.128;21.068;2022-11-15T07:53:40;34.28;;;15.90;;
5060;SDS011;2549;52.128;21.068;2022-11-15T07:56:08;31.40;;;15.10;;
5060;SDS011;2549;52.128;21.068;2022-11-15T07:58:35;30.02;;;14.73;;
5060;SDS011;2549;52.128;21.068;2022-11-15T08:01:03;31.17;;;14.98;;
5060;SDS011;2549;52.128;21.068;2022-11-15T08:03:31;30.73;;;14.45;;
5060;SDS011;2549;52.128;21.068;2022-11-15T08:05:59;31.05;;;15.05;;
5060;SDS011;2549;52.128;21.068;2022-11-15T08:08:26;27.05;;;14.55;;
5060;SDS011;2549;52.128;21.068;2022-11-15T08:10:53;34.43;;;14.17;;
5060;SDS011;2549;52.128;21.068;2022-11-15T08:13:20;31.08;;;14.20;;
5060;SDS011;2549;52.128;21.068;2022-11-15T08:15:47;31.85;;;14.73;;
5060;SDS011;2549;52.128;21.068;2022-11-15T08:18:21;26.63;;;12.67;;
5060;SDS011;2549;52.128;21.068;2022-11-15T08:20:48;27.85;;;13.38;;
5060;SDS011;2549;52.128;21.068;2022-11-15T08:23:15;24.13;;;12.77;;
5060;SDS011;2549;52.128;21.068;2022-11-15T08:25:42;27.40;;;12.75;;
5060;SDS011;2549;52.128;21.068;2022-11-15T08:28:09;24.38;;;12.63;;
5060;SDS011;2549;52.128;21.068;2022-11-15T08:30:38;27.83;;;13.43;;
5060;SDS011;2549;52.128;21.068;2022-11-15T08:33:12;23.48;;;12.73;;
5060;SDS011;2549;52.128;21.068;2022-11-15T08:35:40;24.40;;;12.27;;
5060;SDS011;2549;52.128;21.068;2022-11-15T08:38:08;29.55;;;14.23;;
5060;SDS011;2549;52.128;21.068;2022-11-15T08:40:35;25.60;;;13.40;;
5060;SDS011;2549;52.128;21.068;2022-11-15T08:43:03;27.50;;;14.32;;
5060;SDS011;2549;52.128;21.068;2022-11-15T08:45:30;25.23;;;13.13;;
5060;SDS011;2549;52.128;21.068;2022-11-15T08:47:57;25.73;;;12.57;;
5060;SDS011;2549;52.128;21.068;2022-11-15T08:50:27;25.20;;;13.13;;
5060;SDS011;2549;52.128;21.068;2022-11-15T08:52:54;24.58;;;12.90;;
5060;SDS011;2549;52.128;21.068;2022-11-15T08:55:21;29.10;;;13.15;;
5060;SDS011;2549;52.128;21.068;2022-11-15T08:57:50;26.52;;;14.13;;
5060;SDS011;2549;52.128;21.068;2022-11-15T09:00:17;24.70;;;14.00;;
5060;SDS011;2549;52.128;21.068;2022-11-15T09:02:46;23.45;;;13.80;;
5060;SDS011;2549;52.128;21.068;2022-11-15T09:05:13;27.45;;;13.50;;
5060;SDS011;2549;52.128;21.068;2022-11-15T09:07:41;25.40;;;12.80;;
5060;SDS011;2549;52.128;21.068;2022-11-15T09:10:09;28.75;;;15.23;;
5060;SDS011;2549;52.128;21.068;2022-11-15T09:12:36;30.52;;;13.77;;
5060;SDS011;2549;52.128;21.068;2022-11-15T09:15:04;22.90;;;12.85;;
5060;SDS011;2549;52.128;21.068;2022-11-15T09:17:32;27.52;;;13.68;;
5060;SDS011;2549;52.128;21.068;2022-11-15T09:19:59;31.77;;;14.82;;
5060;SDS011;2549;52.128;21.068;2022-11-15T09:22:25;25.55;;;12.73;;
5060;SDS011;2549;52.128;21.068;2022-11-15T09:24:52;25.95;;;14.95;;
5060;SDS011;2549;52.128;21.068;2022-11-15T09:27:19;25.90;;;14.43;;
5060;SDS011;2549;52.128;21.068;2022-11-15T09:29:46;27.63;;;14.35;;
5060;SDS011;2549;52.128;21.068;2022-11-15T09:32:13;28.13;;;14.05;;
5060;SDS011;2549;52.128;21.068;2022-11-15T09:34:39;28.90;;;13.68;;
5060;SDS011;2549;52.128;21.068;2022-11-15T09:37:06;33.53;;;15.75;;
5060;SDS011;2549;52.128;21.068;2022-11-15T09:39:33;34.53;;;14.05;;
5060;SDS011;2549;52.128;21.068;2022-11-15T09:42:07;35.20;;;16.50;;
5060;SDS011;2549;52.128;21.068;2022-11-15T09:50:36;35.08;;;15.57;;
5060;SDS011;2549;52.128;21.068;2022-11-15T09:53:58;31.83;;;15.50;;
5060;SDS011;2549;52.128;21.068;2022-11-15T09:56:44;27.92;;;15.43;;
5060;SDS011;2549;52.128;21.068;2022-11-15T10:05:20;30.95;;;14.07;;
5060;SDS011;2549;52.128;21.068;2022-11-15T10:13:22;27.98;;;14.70;;
5060;SDS011;2549;52.128;21.068;2022-11-15T10:15:53;30.48;;;15.15;;
5060;SDS011;2549;52.128;21.068;2022-11-15T10:18:29;33.40;;;15.27;;
5060;SDS011;2549;52.128;21.068;2022-11-15T10:21:17;31.25;;;15.15;;
5060;SDS011;2549;52.128;21.068;2022-11-15T10:23:46;31.23;;;15.95;;
5060;SDS011;2549;52.128;21.068;2022-11-15T10:26:15;30.42;;;14.95;;
5060;SDS011;2549;52.128;21.068;2022-11-15T10:28:43;29.52;;;15.05;;
5060;SDS011;2549;52.128;21.068;2022-11-15T10:31:23;32.05;;;16.20;;
5060;SDS011;2549;52.128;21.068;2022-11-15T10:33:57;27.23;;;15.38;;
5060;SDS011;2549;52.128;21.068;2022-11-15T10:36:56;28.65;;;15.18;;
5060;SDS011;2549;52.128;21.068;2022-11-15T10:39:24;31.98;;;14.98;;
5060;SDS011;2549;52.128;21.068;2022-11-15T10:41:51;28.20;;;14.55;;
5060;SDS011;2549;52.128;21.068;2022-11-15T10:44:22;29.30;;;14.27;;
5060;SDS011;2549;52.128;21.068;2022-11-15T10:49:25;29.90;;;16.13;;
5060;SDS011;2549;52.128;21.068;2022-11-15T10:54:30;32.25;;;15.43;;
5060;SDS011;2549;52.128;21.068;2022-11-15T10:57:08;26.70;;;15.13;;
5060;SDS011;2549;52.128;21.068;2022-11-15T10:59:42;34.03;;;15.57;;
5060;SDS011;2549;52.128;21.068;2022-11-15T11:02:57;27.17;;;15.63;;
5060;SDS011;2549;52.128;21.068;2022-11-15T11:05:37;27.38;;;15.32;;
5060;SDS011;2549;52.128;21.068;2022-11-15T11:10:38;25.45;;;14.95;;
5060;SDS011;2549;52.128;21.068;2022-11-15T11:13:29;28.15;;;15.25;;
5060;SDS011;2549;52.128;21.068;2022-11-15T11:16:18;29.52;;;16.20;;
5060;SDS011;2549;52.128;21.068;2022-11-15T11:40:51;36.10;;;17.25;;
5060;SDS011;2549;52.128;21.068;2022-11-15T11:43:30;34.13;;;17.17;;
5060;SDS011;2549;52.128;21.068;2022-11-15T11:46:28;35.53;;;18.02;;
5060;SDS011;2549;52.128;21.068;2022-11-15T11:49:21;37.47;;;17.70;;
5060;SDS011;2549;52.128;21.068;2022-11-15T11:54:25;32.30;;;17.75;;
5060;SDS011;2549;52.128;21.068;2022-11-15T11:57:03;34.70;;;19.02;;
5060;SDS011;2549;52.128;21.068;2022-11-15T12:04:51;35.17;;;17.17;;
5060;SDS011;2549;52.128;21.068;2022-11-15T12:07:24;32.50;;;18.02;;
5060;SDS011;2549;52.128;21.068;2022-11-15T12:09:59;34.83;;;17.77;;
5060;SDS011;2549;52.128;21.068;2022-11-15T12:12:49;41.30;;;20.73;;
5060;SDS011;2549;52.128;21.068;2022-11-15T12:15:47;39.70;;;20.25;;
5060;SDS011;2549;52.128;21.068;2022-11-15T12:18:22;37.80;;;19.00;;
5060;SDS011;2549;52.128;21.068;2022-11-15T12:20:51;38.55;;;18.92;;
5060;SDS011;2549;52.128;21.068;2022-11-15T12:23:28;36.65;;;18.25;;
5060;SDS011;2549;52.128;21.068;2022-11-15T12:26:45;37.25;;;19.45;;
5060;SDS011;2549;52.128;21.068;2022-11-15T12:28:55;38.40;;;18.80;;
5060;SDS011;2549;52.128;21.068;2022-11-15T12:34:02;40.53;;;20.75;;
5060;SDS011;2549;52.128;21.068;2022-11-15T12:36:40;34.45;;;18.52;;
5060;SDS011;2549;52.128;21.068;2022-11-15T12:39:09;37.25;;;19.75;;
5060;SDS011;2549;52.128;21.068;2022-11-15T12:41:41;40.47;;;20.53;;
5060;SDS011;2549;52.128;21.068;2022-11-15T12:44:15;38.67;;;19.70;;
5060;SDS011;2549;52.128;21.068;2022-11-15T12:52:18;35.17;;;19.05;;
5060;SDS011;2549;52.128;21.068;2022-11-15T12:54:49;37.75;;;19.20;;
5060;SDS011;2549;52.128;21.068;2022-11-15T12:57:23;33.38;;;18.67;;
5060;SDS011;2549;52.128;21.068;2022-11-15T12:59:59;40.27;;;19.73;;
5060;SDS011;2549;52.128;21.068;2022-11-15T13:02:40;35.85;;;18.92;;
5060;SDS011;2549;52.128;21.068;2022-11-15T13:12:57;36.30;;;18.42;;
5060;SDS011;2549;52.128;21.068;2022-11-15T13:18:30;34.73;;;18.13;;
5060;SDS011;2549;52.128;21.068;2022-11-15T13:21:02;40.40;;;19.02;;
5060;SDS011;2549;52.128;21.068;2022-11-15T13:23:52;35.13;;;18.02;;
5060;SDS011;2549;52.128;21.068;2022-11-15T13:26:20;37.90;;;19.60;;
5060;SDS011;2549;52.128;21.068;2022-11-15T13:28:48;37.90;;;19.60;;
5060;SDS011;2549;52.128;21.068;2022-11-15T13:33:49;31.60;;;17.95;;
5060;SDS011;2549;52.128;21.068;2022-11-15T13:36:26;36.08;;;19.23;;
5060;SDS011;2549;52.128;21.068;2022-11-15T13:41:47;39.85;;;20.25;;
5060;SDS011;2549;52.128;21.068;2022-11-15T13:44:34;38.30;;;20.07;;
5060;SDS011;2549;52.128;21.068;2022-11-15T13:47:05;37.80;;;20.15;;
5060;SDS011;2549;52.128;21.068;2022-11-15T13:49:40;40.30;;;20.85;;
5060;SDS011;2549;52.128;21.068;2022-11-15T13:52:09;36.28;;;19.25;;
5060;SDS011;2549;52.128;21.068;2022-11-15T13:54:44;38.78;;;20.27;;
5060;SDS011;2549;52.128;21.068;2022-11-15T14:03:24;41.63;;;19.45;;
5060;SDS011;2549;52.128;21.068;2022-11-15T14:08:33;43.30;;;20.40;;
5060;SDS011;2549;52.128;21.068;2022-11-15T14:11:05;36.08;;;20.00;;
5060;SDS011;2549;52.128;21.068;2022-11-15T14:13:40;34.33;;;20.38;;
5060;SDS011;2549;52.128;21.068;2022-11-15T14:16:14;36.75;;;21.77;;
5060;SDS011;2549;52.128;21.068;2022-11-15T14:18:48;39.28;;;19.90;;
5060;SDS011;2549;52.128;21.068;2022-11-15T14:21:19;38.83;;;21.00;;
5060;SDS011;2549;52.128;21.068;2022-11-15T14:23:46;36.60;;;20.42;;
5060;SDS011;2549;52.128;21.068;2022-11-15T14:26:29;46.47;;;22.75;;
5060;SDS011;2549;52.128;21.068;2022-11-15T14:29:21;40.78;;;21.75;;
5060;SDS011;2549;52.128;21.068;2022-11-15T14:32:05;41.78;;;22.40;;
5060;SDS011;2549;52.128;21.068;2022-11-15T14:34:38;41.70;;;20.85;;
5060;SDS011;2549;52.128;21.068;2022-11-15T14:37:08;50.15;;;22.27;;
5060;SDS011;2549;52.128;21.068;2022-11-15T14:39:45;48.58;;;23.20;;
5060;SDS011;2549;52.128;21.068;2022-11-15T14:42:12;45.25;;;23.00;;
5060;SDS011;2549;52.128;21.068;2022-11-15T14:44:38;48.15;;;21.25;;
5060;SDS011;2549;52.128;21.068;2022-11-15T14:47:11;53.75;;;21.50;;
5060;SDS011;2549;52.128;21.068;2022-11-15T14:49:38;51.78;;;23.60;;
5060;SDS011;2549;52.128;21.068;2022-11-15T14:54:58;43.38;;;23.30;;
5060;SDS011;2549;52.128;21.068;2022-11-15T14:57:25;47.78;;;23.60;;
5060;SDS011;2549;52.128;21.068;2022-11-15T14:59:52;48.97;;;21.65;;
5060;SDS011;2549;52.128;21.068;2022-11-15T15:02:23;47.03;;;23.13;;
5060;SDS011;2549;52.128;21.068;2022-11-15T15:04:53;39.03;;;21.52;;
5060;SDS011;2549;52.128;21.068;2022-11-15T15:07:20;44.42;;;21.35;;
5060;SDS011;2549;52.128;21.068;2022-11-15T15:09:48;43.95;;;22.70;;
5060;SDS011;2549;52.128;21.068;2022-11-15T15:12:19;46.33;;;23.83;;
5060;SDS011;2549;52.128;21.068;2022-11-15T15:14:48;44.45;;;21.65;;
5060;SDS011;2549;52.128;21.068;2022-11-15T15:17:16;46.63;;;22.30;;
5060;SDS011;2549;52.128;21.068;2022-11-15T15:19:43;49.03;;;24.88;;
5060;SDS011;2549;52.128;21.068;2022-11-15T15:22:17;48.28;;;22.35;;
5060;SDS011;2549;52.128;21.068;2022-11-15T15:24:46;49.13;;;24.60;;
5060;SDS011;2549;52.128;21.068;2022-11-15T15:27:12;47.63;;;22.52;;
5060;SDS011;2549;52.128;21.068;2022-11-15T15:29:39;41.30;;;20.95;;
5060;SDS011;2549;52.128;21.068;2022-11-15T15:32:07;45.30;;;23.73;;
5060;SDS011;2549;52.128;21.068;2022-11-15T15:34:35;54.45;;;23.00;;
5060;SDS011;2549;52.128;21.068;2022-11-15T15:39:52;46.85;;;23.23;;
5060;SDS011;2549;52.128;21.068;2022-11-15T15:42:21;45.95;;;23.13;;
5060;SDS011;2549;52.128;21.068;2022-11-15T15:44:49;49.28;;;25.25;;
5060;SDS011;2549;52.128;21.068;2022-11-15T15:47:18;63.42;;;24.67;;
5060;SDS011;2549;52.128;21.068;2022-11-15T15:49:49;48.50;;;23.77;;
5060;SDS011;2549;52.128;21.068;2022-11-15T15:52:16;51.97;;;24.10;;
5060;SDS011;2549;52.128;21.068;2022-11-15T15:54:44;52.97;;;24.53;;
5060;SDS011;2549;52.128;21.068;2022-11-15T15:57:11;56.58;;;24.33;;
5060;SDS011;2549;52.128;21.068;2022-11-15T15:59:40;50.92;;;23.83;;
5060;SDS011;2549;52.128;21.068;2022-11-15T16:02:11;48.13;;;23.67;;
5060;SDS011;2549;52.128;21.068;2022-11-15T16:04:38;50.80;;;24.40;;
5060;SDS011;2549;52.128;21.068;2022-11-15T16:07:07;55.28;;;23.98;;
5060;SDS011;2549;52.128;21.068;2022-11-15T16:09:42;47.90;;;25.58;;
5060;SDS011;2549;52.128;21.068;2022-11-15T16:12:31;52.75;;;24.38;;
5060;SDS011;2549;52.128;21.068;2022-11-15T16:14:59;57.60;;;25.35;;
5060;SDS011;2549;52.128;21.068;2022-11-15T16:17:28;52.65;;;24.30;;
5060;SDS011;2549;52.128;21.068;2022-11-15T16:19:59;59.05;;;26.02;;
5060;SDS011;2549;52.128;21.068;2022-11-15T16:22:27;57.20;;;24.95;;
5060;SDS011;2549;52.128;21.068;2022-11-15T16:24:55;54.72;;;24.73;;
5060;SDS011;2549;52.128;21.068;2022-11-15T16:27:23;52.10;;;24.75;;
5060;SDS011;2549;52.128;21.068;2022-11-15T16:29:50;44.30;;;24.67;;
5060;SDS011;2549;52.128;21.068;2022-11-15T16:32:16;61.55;;;25.48;;
5060;SDS011;2549;52.128;21.068;2022-11-15T16:34:43;54.28;;;25.02;;
5060;SDS011;2549;52.128;21.068;2022-11-15T16:37:23;56.72;;;24.55;;
5060;SDS011;2549;52.128;21.068;2022-11-15T16:39:50;67.97;;;25.38;;
5060;SDS011;2549;52.128;21.068;2022-11-15T16:42:22;54.05;;;24.42;;
5060;SDS011;2549;52.128;21.068;2022-11-15T16:44:49;64.70;;;26.55;;
5060;SDS011;2549;52.128;21.068;2022-11-15T16:47:17;53.90;;;23.27;;
5060;SDS011;2549;52.128;21.068;2022-11-15T16:49:48;64.70;;;27.88;;
5060;SDS011;2549;52.128;21.068;2022-11-15T16:52:14;57.83;;;24.35;;
5060;SDS011;2549;52.128;21.068;2022-11-15T16:54:46;54.60;;;23.98;;
5060;SDS011;2549;52.128;21.068;2022-11-15T16:57:13;61.47;;;25.80;;
5060;SDS011;2549;52.128;21.068;2022-11-15T16:59:41;55.72;;;22.85;;
5060;SDS011;2549;52.128;21.068;2022-11-15T17:02:11;54.55;;;24.92;;
5060;SDS011;2549;52.128;21.068;2022-11-15T17:04:38;59.90;;;24.73;;
5060;SDS011;2549;52.128;21.068;2022-11-15T17:07:05;65.13;;;26.05;;
5060;SDS011;2549;52.128;21.068;2022-11-15T17:09:32;50.17;;;24.80;;